地図

経路データ

SID SEASON NUMBER BASIN SUBBASIN NAME ISO_TIME NATURE LAT LON WMO_WIND WMO_PRES WMO_AGENCY TRACK_TYPE DIST2LAND LANDFALL IFLAG USA_AGENCY USA_ATCF_ID USA_LAT USA_LON USA_RECORD USA_STATUS USA_WIND USA_PRES USA_SSHS USA_R34_NE USA_R34_SE USA_R34_SW USA_R34_NW USA_R50_NE USA_R50_SE USA_R50_SW USA_R50_NW USA_R64_NE USA_R64_SE USA_R64_SW USA_R64_NW USA_POCI USA_ROCI USA_RMW USA_EYE TOKYO_LAT TOKYO_LON TOKYO_GRADE TOKYO_WIND TOKYO_PRES TOKYO_R50_DIR TOKYO_R50_LONG TOKYO_R50_SHORT TOKYO_R30_DIR TOKYO_R30_LONG TOKYO_R30_SHORT TOKYO_LAND CMA_LAT CMA_LON CMA_CAT CMA_WIND CMA_PRES HKO_LAT HKO_LON HKO_CAT HKO_WIND HKO_PRES NEWDELHI_LAT NEWDELHI_LON NEWDELHI_GRADE NEWDELHI_WIND NEWDELHI_PRES NEWDELHI_CI NEWDELHI_DP NEWDELHI_POCI REUNION_LAT REUNION_LON REUNION_TYPE REUNION_WIND REUNION_PRES REUNION_TNUM REUNION_CI REUNION_RMW REUNION_R34_NE REUNION_R34_SE REUNION_R34_SW REUNION_R34_NW REUNION_R50_NE REUNION_R50_SE REUNION_R50_SW REUNION_R50_NW REUNION_R64_NE REUNION_R64_SE REUNION_R64_SW REUNION_R64_NW BOM_LAT BOM_LON BOM_TYPE BOM_WIND BOM_PRES BOM_TNUM BOM_CI BOM_RMW BOM_R34_NE BOM_R34_SE BOM_R34_SW BOM_R34_NW BOM_R50_NE BOM_R50_SE BOM_R50_SW BOM_R50_NW BOM_R64_NE BOM_R64_SE BOM_R64_SW BOM_R64_NW BOM_ROCI BOM_POCI BOM_EYE BOM_POS_METHOD BOM_PRES_METHOD NADI_LAT NADI_LON NADI_CAT NADI_WIND NADI_PRES WELLINGTON_LAT WELLINGTON_LON WELLINGTON_WIND WELLINGTON_PRES DS824_LAT DS824_LON DS824_STAGE DS824_WIND DS824_PRES TD9636_LAT TD9636_LON TD9636_STAGE TD9636_WIND TD9636_PRES TD9635_LAT TD9635_LON TD9635_WIND TD9635_PRES TD9635_ROCI NEUMANN_LAT NEUMANN_LON NEUMANN_CLASS NEUMANN_WIND NEUMANN_PRES MLC_LAT MLC_LON MLC_CLASS MLC_WIND MLC_PRES USA_GUST BOM_GUST BOM_GUST_PER REUNION_GUST REUNION_GUST_PER USA_SEAHGT USA_SEARAD_NE USA_SEARAD_SE USA_SEARAD_SW USA_SEARAD_NW STORM_SPEED STORM_DIR
1966251N17231 1966 69 EP MM GRETCHEN 1966-09-08 00:00:00 TS 17.0000 -129.300 45 hurdat_epa spur-merge 1892 1892 O________OO___ hurdat_epa EP071966 17.0000 -129.300 TS 45 0 17.0000 -129.300 TC 45 17.0000 -129.300 2 8 278
1966251N17231 1966 69 EP MM GRETCHEN 1966-09-08 03:00:00 TS 17.0539 -129.705 spur-merge 1916 1916 P________PP___ EP071966 17.0602 -129.707 TS 45 0 17.0602 -129.707 TC 45 17.0289 -129.697 2 8 277
1966251N17231 1966 69 EP MM GRETCHEN 1966-09-08 06:00:00 TS 17.0912 -130.097 45 hurdat_epa spur-merge 1949 1949 O________OP___ hurdat_epa EP071966 17.1000 -130.100 TS 45 0 17.1000 -130.100 TC 45 17.0558 -130.085 2 7 274
1966251N17231 1966 69 EP MM GRETCHEN 1966-09-08 09:00:00 TS 17.1019 -130.463 spur-merge 1981 1981 P________PP___ EP071966 17.1074 -130.465 TS 45 0 17.1074 -130.465 TC 45 17.0799 -130.456 2 7 271
1966251N17231 1966 69 EP MM GRETCHEN 1966-09-08 12:00:00 TS 17.1000 -130.800 45 hurdat_epa spur-merge 2006 2006 O________OO___ hurdat_epa EP071966 17.1000 -130.800 TS 45 0 17.1000 -130.800 TC 45 17.1000 -130.800 2 6 271
1966251N17231 1966 69 EP MM GRETCHEN 1966-09-08 15:00:00 TS 17.1086 -131.109 spur-merge 2031 2031 P________PP___ EP071966 17.1074 -131.107 TS 45 0 17.1074 -131.107 TC 45 17.1134 -131.113 2 6 270
1966251N17231 1966 69 EP MM GRETCHEN 1966-09-08 18:00:00 TS 17.1019 -131.401 45 hurdat_epa spur-merge 2056 2056 O________OP___ hurdat_epa EP071966 17.1000 -131.400 TS 45 0 17.1000 -131.400 TC 45 17.1095 -131.407 2 6 266
1966251N17231 1966 69 EP MM GRETCHEN 1966-09-08 21:00:00 TS 17.0671 -131.693 spur-merge 2081 2081 P________PP___ EP071966 17.0649 -131.692 TS 45 0 17.0649 -131.692 TC 45 17.0759 -131.697 2 6 260
1966251N17231 1966 69 EP MM GRETCHEN 1966-09-09 00:00:00 TS 17.0000 -132.000 45 hurdat_epa spur-merge 2113 2113 O________OO___ hurdat_epa EP071966 17.0000 -132.000 TS 45 0 17.0000 -132.000 TC 45 17.0000 -132.000 2 6 257
1966251N17231 1966 69 EP MM GRETCHEN 1966-09-09 03:00:00 TS 16.9232 -132.339 spur-merge 2146 2146 P________PP___ EP071966 16.9300 -132.342 TS 45 0 16.9300 -132.342 TC 45 16.8963 -132.323 2 7 252
1966251N17231 1966 69 EP MM GRETCHEN 1966-09-09 06:00:00 TS 16.7894 -132.692 45 hurdat_epa spur-merge 2186 2186 O________OP___ hurdat_epa EP071966 16.8000 -132.700 TS 45 0 16.8000 -132.700 TC 45 16.7471 -132.662 2 7 243
1966251N17231 1966 69 EP MM GRETCHEN 1966-09-09 09:00:00 TS 16.5798 -133.032 spur-merge 2225 2225 P________PP___ EP071966 16.5874 -133.035 TS 45 0 16.5874 -133.035 TC 45 16.5494 -133.020 2 8 234
1966251N17231 1966 69 EP MM GRETCHEN 1966-09-09 12:00:00 TS 16.3000 -133.400 45 hurdat_epa spur-merge 2279 2256 O________OO___ hurdat_epa EP071966 16.3000 -133.400 TS 45 0 16.3000 -133.400 TC 45 16.3000 -133.400 2 10 232
1966251N17231 1966 69 EP MM GRETCHEN 1966-09-09 15:00:00 TS 15.9689 -133.837 spur-merge 2256 2215 P________PP___ EP071966 15.9650 -133.843 TS 45 0 15.9650 -133.843 TC 45 15.9842 -133.816 2 11 231
1966251N17231 1966 69 EP MM GRETCHEN 1966-09-09 18:00:00 TS 15.6045 -134.290 45 hurdat_epa spur-merge 2215 2182 O________OP___ hurdat_epa EP071966 15.6000 -134.300 TS 45 0 15.6000 -134.300 TC 45 15.6227 -134.251 2 11 229
1966251N17231 1966 69 EP MM GRETCHEN 1966-09-09 21:00:00 TS 15.2379 -134.709 spur-merge 2185 2153 P________PP___ EP071966 15.2349 -134.715 TS 45 0 15.2349 -134.715 TC 45 15.2498 -134.685 2 11 228
1966251N17231 1966 69 EP MM GRETCHEN 1966-09-10 00:00:00 TS 14.9000 -135.100 45 hurdat_epa spur-merge 2153 2129 O________OO___ hurdat_epa EP071966 14.9000 -135.100 TS 45 0 14.9000 -135.100 TC 45 14.9000 -135.100 2 9 230
1966251N17231 1966 69 EP MM GRETCHEN 1966-09-10 03:00:00 TS 14.6335 -135.445 spur-merge 2132 2098 P________PP___ EP071966 14.6349 -135.457 TS 45 0 14.6349 -135.457 TC 45 14.6280 -135.397 2 8 232
1966251N17231 1966 69 EP MM GRETCHEN 1966-09-10 06:00:00 TS 14.3966 -135.777 45 hurdat_epa spur-merge 2098 2075 O________OP___ hurdat_epa EP071966 14.4000 -135.800 TS 45 0 14.4000 -135.800 TC 45 14.3828 -135.686 2 8 232
1966251N17231 1966 69 EP MM GRETCHEN 1966-09-10 09:00:00 TS 14.1549 -136.078 spur-merge 2075 2046 P________PP___ EP071966 14.1571 -136.090 TS 45 0 14.1571 -136.090 TC 45 14.1464 -136.032 2 9 235
1966251N17231 1966 69 EP MM GRETCHEN 1966-09-10 12:00:00 TS 13.9000 -136.500 45 hurdat_epa spur-merge 2046 1993 O________OO___ hurdat_epa EP071966 13.9000 -136.500 TS 45 0 13.9000 -136.500 TC 45 13.9000 -136.500 2 12 243
1966251N17231 1966 69 EP MM GRETCHEN 1966-09-10 15:00:00 TS 13.5988 -137.188 spur-merge 1987 1920 P________PP___ EP071966 13.6076 -137.175 TS 45 0 13.6076 -137.175 TC 45 13.5637 -137.237 2 16 247
1966251N17231 1966 69 EP MM GRETCHEN 1966-09-10 18:00:00 TS 13.2841 -138.018 45 hurdat_epa spur-merge 1920 1845 O________OP___ hurdat_epa EP071966 13.3000 -138.000 TS 45 0 13.3000 -138.000 TC 45 13.2204 -138.088 2 18 249
1966251N17231 1966 69 EP MM GRETCHEN 1966-09-10 21:00:00 TS 12.9596 -138.899 spur-merge 1845 1782 P________PP___ EP071966 12.9703 -138.888 TS 45 0 12.9703 -138.888 TC 45 12.9167 -138.944 2 17 250
1966251N17231 1966 69 EP MM GRETCHEN 1966-09-11 00:00:00 TS 12.7000 -139.700 45 hurdat_epa spur-merge 1782 1730 O________OO___ hurdat_epa EP071966 12.7000 -139.700 TS 45 0 12.7000 -139.700 TC 45 12.7000 -139.700 2 14 253
1966251N17231 1966 69 EP CP GRETCHEN 1966-09-11 03:00:00 TS 12.5468 -140.281 spur-merge 1735 1697 P________PP___ EP071966 12.5322 -140.282 TS 45 0 12.5322 -140.282 TC 45 12.6054 -140.278 2 10 260
1966251N17231 1966 69 EP CP GRETCHEN 1966-09-11 06:00:00 TS 12.5226 -140.701 45 hurdat_epa spur-merge 1697 1663 O________OP___ hurdat_epa EP071966 12.5000 -140.700 TS 45 0 12.5000 -140.700 TC 45 12.6132 -140.703 2 7 276
1966251N17231 1966 69 EP CP GRETCHEN 1966-09-11 09:00:00 TS 12.6260 -141.023 spur-merge 1663 1624 P________PP___ EP071966 12.6101 -141.022 TS 45 0 12.6101 -141.022 TC 45 12.6894 -141.027 2 6 295
1966251N17231 1966 69 EP CP GRETCHEN 1966-09-11 12:00:00 TS 12.8000 -141.300 45 hurdat_epa spur-merge 1624 O________OO___ hurdat_epa EP071966 12.8000 -141.300 TS 45 0 12.8000 -141.300 TC 45 12.8000 -141.300 6 6 303

IBTrACS Databaseについて

本データベースは、米国NOAAが公開する1842年以降の世界の熱帯低気圧のベストトラックデータアーカイブInternational Best Track Archive for Climate Stewardship (IBTrACS)を、ウェブで閲覧しやすい形式に変換したものです。

最終更新日:2021-10-08